sensor_id;sensor_type;location;lat;lon;timestamp;P1;durP1;ratioP1;P2;durP2;ratioP2
11054;SDS011;5580;50.106;8.702;2023-10-08T00:00:31;12.20;;;6.27;;
11054;SDS011;5580;50.106;8.702;2023-10-08T00:03:14;12.20;;;6.10;;
11054;SDS011;5580;50.106;8.702;2023-10-08T00:05:42;12.13;;;6.17;;
11054;SDS011;5580;50.106;8.702;2023-10-08T00:08:08;11.03;;;6.00;;
11054;SDS011;5580;50.106;8.702;2023-10-08T00:10:40;12.73;;;5.93;;
11054;SDS011;5580;50.106;8.702;2023-10-08T00:13:09;12.83;;;6.27;;
11054;SDS011;5580;50.106;8.702;2023-10-08T00:15:37;12.33;;;5.97;;
11054;SDS011;5580;50.106;8.702;2023-10-08T00:18:09;11.60;;;6.17;;
11054;SDS011;5580;50.106;8.702;2023-10-08T00:20:37;15.83;;;6.70;;
11054;SDS011;5580;50.106;8.702;2023-10-08T00:23:32;11.67;;;6.23;;
11054;SDS011;5580;50.106;8.702;2023-10-08T00:26:00;10.80;;;5.60;;
11054;SDS011;5580;50.106;8.702;2023-10-08T00:28:31;11.07;;;6.30;;
11054;SDS011;5580;50.106;8.702;2023-10-08T00:31:06;12.53;;;6.27;;
11054;SDS011;5580;50.106;8.702;2023-10-08T00:33:37;11.53;;;6.20;;
11054;SDS011;5580;50.106;8.702;2023-10-08T00:36:04;12.07;;;6.13;;
11054;SDS011;5580;50.106;8.702;2023-10-08T00:38:45;12.00;;;5.93;;
11054;SDS011;5580;50.106;8.702;2023-10-08T00:41:14;11.73;;;6.30;;
11054;SDS011;5580;50.106;8.702;2023-10-08T00:43:40;14.33;;;6.50;;
11054;SDS011;5580;50.106;8.702;2023-10-08T00:46:07;12.93;;;6.30;;
11054;SDS011;5580;50.106;8.702;2023-10-08T00:48:43;16.20;;;6.70;;
11054;SDS011;5580;50.106;8.702;2023-10-08T00:51:10;10.73;;;6.17;;
11054;SDS011;5580;50.106;8.702;2023-10-08T00:53:53;11.93;;;6.17;;
11054;SDS011;5580;50.106;8.702;2023-10-08T00:56:22;15.17;;;6.80;;
11054;SDS011;5580;50.106;8.702;2023-10-08T00:58:50;12.23;;;6.20;;
11054;SDS011;5580;50.106;8.702;2023-10-08T01:01:19;11.47;;;6.07;;
11054;SDS011;5580;50.106;8.702;2023-10-08T01:03:46;14.97;;;6.43;;
11054;SDS011;5580;50.106;8.702;2023-10-08T01:06:12;11.57;;;6.23;;
11054;SDS011;5580;50.106;8.702;2023-10-08T01:08:39;12.57;;;6.20;;
11054;SDS011;5580;50.106;8.702;2023-10-08T01:13:42;13.83;;;6.23;;
11054;SDS011;5580;50.106;8.702;2023-10-08T01:16:10;11.10;;;5.83;;
11054;SDS011;5580;50.106;8.702;2023-10-08T01:18:36;13.70;;;6.33;;
11054;SDS011;5580;50.106;8.702;2023-10-08T01:21:02;11.97;;;6.17;;
11054;SDS011;5580;50.106;8.702;2023-10-08T01:23:36;14.03;;;6.17;;
11054;SDS011;5580;50.106;8.702;2023-10-08T01:26:03;12.03;;;6.30;;
11054;SDS011;5580;50.106;8.702;2023-10-08T01:28:35;15.00;;;6.90;;
11054;SDS011;5580;50.106;8.702;2023-10-08T01:31:01;15.03;;;6.73;;
11054;SDS011;5580;50.106;8.702;2023-10-08T01:33:31;11.83;;;6.17;;
11054;SDS011;5580;50.106;8.702;2023-10-08T01:36:02;12.70;;;6.70;;
11054;SDS011;5580;50.106;8.702;2023-10-08T01:38:30;12.03;;;6.60;;
11054;SDS011;5580;50.106;8.702;2023-10-08T01:40:57;13.00;;;6.40;;
11054;SDS011;5580;50.106;8.702;2023-10-08T01:43:28;12.73;;;6.50;;
11054;SDS011;5580;50.106;8.702;2023-10-08T01:45:54;10.83;;;5.67;;
11054;SDS011;5580;50.106;8.702;2023-10-08T01:48:20;10.77;;;6.27;;
11054;SDS011;5580;50.106;8.702;2023-10-08T01:50:56;11.67;;;6.27;;
11054;SDS011;5580;50.106;8.702;2023-10-08T01:53:26;11.53;;;6.20;;
11054;SDS011;5580;50.106;8.702;2023-10-08T01:55:52;11.13;;;6.20;;
11054;SDS011;5580;50.106;8.702;2023-10-08T01:58:19;16.10;;;6.50;;
11054;SDS011;5580;50.106;8.702;2023-10-08T02:00:45;12.17;;;6.07;;
11054;SDS011;5580;50.106;8.702;2023-10-08T02:03:15;12.93;;;6.80;;
11054;SDS011;5580;50.106;8.702;2023-10-08T02:05:43;14.10;;;6.37;;
11054;SDS011;5580;50.106;8.702;2023-10-08T02:08:13;10.87;;;6.10;;
11054;SDS011;5580;50.106;8.702;2023-10-08T02:10:40;14.93;;;6.63;;
11054;SDS011;5580;50.106;8.702;2023-10-08T02:13:08;14.27;;;6.33;;
11054;SDS011;5580;50.106;8.702;2023-10-08T02:15:35;12.43;;;5.97;;
11054;SDS011;5580;50.106;8.702;2023-10-08T02:18:10;13.50;;;6.50;;
11054;SDS011;5580;50.106;8.702;2023-10-08T02:20:36;11.70;;;6.17;;
11054;SDS011;5580;50.106;8.702;2023-10-08T02:23:01;11.43;;;6.07;;
11054;SDS011;5580;50.106;8.702;2023-10-08T02:25:30;14.67;;;6.47;;
11054;SDS011;5580;50.106;8.702;2023-10-08T02:27:56;10.13;;;5.60;;
11054;SDS011;5580;50.106;8.702;2023-10-08T02:30:22;11.93;;;5.73;;
11054;SDS011;5580;50.106;8.702;2023-10-08T02:32:48;12.93;;;6.00;;
11054;SDS011;5580;50.106;8.702;2023-10-08T02:35:14;14.80;;;6.50;;
11054;SDS011;5580;50.106;8.702;2023-10-08T02:37:40;12.73;;;6.07;;
11054;SDS011;5580;50.106;8.702;2023-10-08T02:40:09;11.20;;;6.10;;
11054;SDS011;5580;50.106;8.702;2023-10-08T02:42:53;12.60;;;5.63;;
11054;SDS011;5580;50.106;8.702;2023-10-08T02:45:26;13.40;;;6.13;;
11054;SDS011;5580;50.106;8.702;2023-10-08T02:47:53;14.23;;;6.60;;
11054;SDS011;5580;50.106;8.702;2023-10-08T02:50:20;12.13;;;6.20;;
11054;SDS011;5580;50.106;8.702;2023-10-08T02:52:47;12.00;;;6.03;;
11054;SDS011;5580;50.106;8.702;2023-10-08T02:55:15;11.97;;;5.93;;
11054;SDS011;5580;50.106;8.702;2023-10-08T02:57:59;13.27;;;6.33;;
11054;SDS011;5580;50.106;8.702;2023-10-08T03:00:28;12.47;;;6.40;;
11054;SDS011;5580;50.106;8.702;2023-10-08T03:03:00;12.53;;;6.00;;
11054;SDS011;5580;50.106;8.702;2023-10-08T03:05:27;13.80;;;6.37;;
11054;SDS011;5580;50.106;8.702;2023-10-08T03:08:00;11.10;;;5.93;;
11054;SDS011;5580;50.106;8.702;2023-10-08T03:10:26;11.10;;;6.00;;
11054;SDS011;5580;50.106;8.702;2023-10-08T03:12:58;13.90;;;6.40;;
11054;SDS011;5580;50.106;8.702;2023-10-08T03:15:29;11.40;;;5.90;;
11054;SDS011;5580;50.106;8.702;2023-10-08T03:17:56;11.70;;;6.50;;
11054;SDS011;5580;50.106;8.702;2023-10-08T03:20:34;11.17;;;6.13;;
11054;SDS011;5580;50.106;8.702;2023-10-08T03:23:12;11.13;;;6.50;;
11054;SDS011;5580;50.106;8.702;2023-10-08T03:25:54;15.97;;;6.23;;
11054;SDS011;5580;50.106;8.702;2023-10-08T03:28:29;10.80;;;5.70;;
11054;SDS011;5580;50.106;8.702;2023-10-08T03:30:59;12.30;;;6.50;;
11054;SDS011;5580;50.106;8.702;2023-10-08T03:33:39;11.53;;;6.00;;
11054;SDS011;5580;50.106;8.702;2023-10-08T03:36:05;12.47;;;6.20;;
11054;SDS011;5580;50.106;8.702;2023-10-08T03:38:59;11.03;;;6.00;;
11054;SDS011;5580;50.106;8.702;2023-10-08T03:41:34;12.13;;;6.47;;
11054;SDS011;5580;50.106;8.702;2023-10-08T03:44:04;12.50;;;6.60;;
11054;SDS011;5580;50.106;8.702;2023-10-08T03:46:37;11.00;;;6.10;;
11054;SDS011;5580;50.106;8.702;2023-10-08T03:49:10;12.10;;;6.33;;
11054;SDS011;5580;50.106;8.702;2023-10-08T03:51:50;11.33;;;6.10;;
11054;SDS011;5580;50.106;8.702;2023-10-08T03:54:22;15.03;;;6.67;;
11054;SDS011;5580;50.106;8.702;2023-10-08T03:56:55;11.90;;;6.13;;
11054;SDS011;5580;50.106;8.702;2023-10-08T03:59:21;12.23;;;6.57;;
11054;SDS011;5580;50.106;8.702;2023-10-08T04:01:59;14.70;;;6.57;;
11054;SDS011;5580;50.106;8.702;2023-10-08T04:04:38;12.97;;;6.43;;
11054;SDS011;5580;50.106;8.702;2023-10-08T04:07:23;13.27;;;6.77;;
11054;SDS011;5580;50.106;8.702;2023-10-08T04:09:54;12.40;;;6.23;;
11054;SDS011;5580;50.106;8.702;2023-10-08T04:12:40;12.27;;;5.93;;
11054;SDS011;5580;50.106;8.702;2023-10-08T04:15:10;13.57;;;6.67;;
11054;SDS011;5580;50.106;8.702;2023-10-08T04:17:38;13.80;;;6.10;;
11054;SDS011;5580;50.106;8.702;2023-10-08T04:20:10;13.17;;;6.47;;
11054;SDS011;5580;50.106;8.702;2023-10-08T04:22:57;11.13;;;6.10;;
11054;SDS011;5580;50.106;8.702;2023-10-08T04:25:28;11.57;;;6.20;;
11054;SDS011;5580;50.106;8.702;2023-10-08T04:27:55;13.47;;;6.33;;
11054;SDS011;5580;50.106;8.702;2023-10-08T04:30:32;12.80;;;6.70;;
11054;SDS011;5580;50.106;8.702;2023-10-08T04:32:59;10.10;;;6.10;;
11054;SDS011;5580;50.106;8.702;2023-10-08T04:35:32;12.30;;;6.30;;
11054;SDS011;5580;50.106;8.702;2023-10-08T04:38:02;12.23;;;6.27;;
11054;SDS011;5580;50.106;8.702;2023-10-08T04:40:29;10.70;;;6.20;;
11054;SDS011;5580;50.106;8.702;2023-10-08T04:42:58;13.77;;;6.93;;
11054;SDS011;5580;50.106;8.702;2023-10-08T04:45:27;12.63;;;6.67;;
11054;SDS011;5580;50.106;8.702;2023-10-08T04:47:58;12.77;;;6.50;;
11054;SDS011;5580;50.106;8.702;2023-10-08T04:50:24;12.70;;;6.23;;
11054;SDS011;5580;50.106;8.702;2023-10-08T04:52:55;12.40;;;6.13;;
11054;SDS011;5580;50.106;8.702;2023-10-08T04:55:26;13.47;;;6.40;;
11054;SDS011;5580;50.106;8.702;2023-10-08T04:57:55;15.47;;;6.43;;
11054;SDS011;5580;50.106;8.702;2023-10-08T05:00:21;11.03;;;6.13;;
11054;SDS011;5580;50.106;8.702;2023-10-08T05:03:05;13.83;;;6.40;;
11054;SDS011;5580;50.106;8.702;2023-10-08T05:05:38;13.93;;;6.67;;
11054;SDS011;5580;50.106;8.702;2023-10-08T05:08:20;13.03;;;6.47;;
11054;SDS011;5580;50.106;8.702;2023-10-08T05:11:09;14.80;;;6.40;;
11054;SDS011;5580;50.106;8.702;2023-10-08T05:14:01;12.00;;;6.17;;
11054;SDS011;5580;50.106;8.702;2023-10-08T05:16:41;14.60;;;6.73;;
11054;SDS011;5580;50.106;8.702;2023-10-08T05:19:25;12.30;;;6.47;;
11054;SDS011;5580;50.106;8.702;2023-10-08T05:22:07;13.97;;;6.53;;
11054;SDS011;5580;50.106;8.702;2023-10-08T05:25:02;13.00;;;6.50;;
11054;SDS011;5580;50.106;8.702;2023-10-08T05:27:34;14.83;;;7.33;;
11054;SDS011;5580;50.106;8.702;2023-10-08T05:30:17;12.77;;;6.13;;
11054;SDS011;5580;50.106;8.702;2023-10-08T05:32:50;11.00;;;6.27;;
11054;SDS011;5580;50.106;8.702;2023-10-08T05:35:36;13.90;;;6.50;;
11054;SDS011;5580;50.106;8.702;2023-10-08T05:38:06;13.47;;;6.97;;
11054;SDS011;5580;50.106;8.702;2023-10-08T05:40:42;14.67;;;6.87;;
11054;SDS011;5580;50.106;8.702;2023-10-08T05:43:23;13.60;;;6.70;;
11054;SDS011;5580;50.106;8.702;2023-10-08T05:46:18;11.13;;;6.17;;
11054;SDS011;5580;50.106;8.702;2023-10-08T05:49:04;12.10;;;6.77;;
11054;SDS011;5580;50.106;8.702;2023-10-08T05:51:34;10.57;;;6.03;;
11054;SDS011;5580;50.106;8.702;2023-10-08T05:54:22;11.13;;;6.07;;
11054;SDS011;5580;50.106;8.702;2023-10-08T05:59:36;12.60;;;6.43;;
11054;SDS011;5580;50.106;8.702;2023-10-08T06:02:21;12.43;;;6.50;;
11054;SDS011;5580;50.106;8.702;2023-10-08T06:04:57;12.57;;;6.40;;
11054;SDS011;5580;50.106;8.702;2023-10-08T06:10:21;14.60;;;6.60;;
11054;SDS011;5580;50.106;8.702;2023-10-08T06:13:04;13.00;;;6.53;;
11054;SDS011;5580;50.106;8.702;2023-10-08T06:15:37;12.70;;;6.20;;
11054;SDS011;5580;50.106;8.702;2023-10-08T06:18:12;12.93;;;6.20;;
11054;SDS011;5580;50.106;8.702;2023-10-08T06:20:39;14.67;;;6.43;;
11054;SDS011;5580;50.106;8.702;2023-10-08T06:23:08;13.57;;;6.50;;
11054;SDS011;5580;50.106;8.702;2023-10-08T06:25:41;13.23;;;6.30;;
11054;SDS011;5580;50.106;8.702;2023-10-08T06:28:11;13.43;;;6.50;;
11054;SDS011;5580;50.106;8.702;2023-10-08T06:30:42;13.83;;;6.73;;
11054;SDS011;5580;50.106;8.702;2023-10-08T06:33:08;13.37;;;6.63;;
11054;SDS011;5580;50.106;8.702;2023-10-08T06:35:34;13.37;;;6.47;;
11054;SDS011;5580;50.106;8.702;2023-10-08T06:38:01;12.33;;;6.63;;
11054;SDS011;5580;50.106;8.702;2023-10-08T06:40:34;12.63;;;6.47;;
11054;SDS011;5580;50.106;8.702;2023-10-08T06:43:03;12.80;;;6.77;;
11054;SDS011;5580;50.106;8.702;2023-10-08T06:45:49;12.17;;;6.40;;
11054;SDS011;5580;50.106;8.702;2023-10-08T06:48:19;14.23;;;6.87;;
11054;SDS011;5580;50.106;8.702;2023-10-08T06:50:48;12.50;;;6.53;;
11054;SDS011;5580;50.106;8.702;2023-10-08T06:53:16;13.33;;;6.50;;
11054;SDS011;5580;50.106;8.702;2023-10-08T06:55:43;14.07;;;6.80;;
11054;SDS011;5580;50.106;8.702;2023-10-08T06:58:09;12.20;;;6.93;;
11054;SDS011;5580;50.106;8.702;2023-10-08T07:00:37;14.23;;;6.87;;
11054;SDS011;5580;50.106;8.702;2023-10-08T07:03:11;12.90;;;6.97;;
11054;SDS011;5580;50.106;8.702;2023-10-08T07:05:45;14.07;;;6.77;;
11054;SDS011;5580;50.106;8.702;2023-10-08T07:08:22;12.57;;;6.77;;
11054;SDS011;5580;50.106;8.702;2023-10-08T07:10:49;14.43;;;7.00;;
11054;SDS011;5580;50.106;8.702;2023-10-08T07:13:19;13.77;;;6.77;;
11054;SDS011;5580;50.106;8.702;2023-10-08T07:15:48;12.63;;;7.07;;
11054;SDS011;5580;50.106;8.702;2023-10-08T07:18:14;12.30;;;6.43;;
11054;SDS011;5580;50.106;8.702;2023-10-08T07:20:40;15.03;;;6.73;;
11054;SDS011;5580;50.106;8.702;2023-10-08T07:23:10;14.90;;;6.80;;
11054;SDS011;5580;50.106;8.702;2023-10-08T07:26:06;16.30;;;6.93;;
11054;SDS011;5580;50.106;8.702;2023-10-08T07:28:36;12.27;;;6.90;;
11054;SDS011;5580;50.106;8.702;2023-10-08T07:31:15;13.77;;;6.53;;
11054;SDS011;5580;50.106;8.702;2023-10-08T07:33:42;18.13;;;7.00;;
11054;SDS011;5580;50.106;8.702;2023-10-08T07:36:10;17.23;;;7.17;;
11054;SDS011;5580;50.106;8.702;2023-10-08T07:38:43;15.13;;;6.90;;
11054;SDS011;5580;50.106;8.702;2023-10-08T07:41:09;13.13;;;6.40;;
11054;SDS011;5580;50.106;8.702;2023-10-08T07:43:40;11.90;;;6.23;;
11054;SDS011;5580;50.106;8.702;2023-10-08T07:46:07;13.77;;;6.60;;
11054;SDS011;5580;50.106;8.702;2023-10-08T07:48:34;13.40;;;6.70;;
11054;SDS011;5580;50.106;8.702;2023-10-08T07:51:00;13.07;;;6.97;;
11054;SDS011;5580;50.106;8.702;2023-10-08T07:53:27;12.83;;;6.83;;
11054;SDS011;5580;50.106;8.702;2023-10-08T07:56:02;12.43;;;6.67;;
11054;SDS011;5580;50.106;8.702;2023-10-08T07:58:36;13.77;;;6.83;;
11054;SDS011;5580;50.106;8.702;2023-10-08T08:01:03;15.70;;;6.63;;
11054;SDS011;5580;50.106;8.702;2023-10-08T08:03:35;15.60;;;6.33;;
11054;SDS011;5580;50.106;8.702;2023-10-08T08:06:05;12.77;;;6.80;;
11054;SDS011;5580;50.106;8.702;2023-10-08T08:08:32;18.00;;;6.53;;
11054;SDS011;5580;50.106;8.702;2023-10-08T08:10:58;14.47;;;6.80;;
11054;SDS011;5580;50.106;8.702;2023-10-08T08:13:37;12.60;;;6.23;;
11054;SDS011;5580;50.106;8.702;2023-10-08T08:16:04;12.80;;;6.53;;
11054;SDS011;5580;50.106;8.702;2023-10-08T08:18:50;12.20;;;6.40;;
11054;SDS011;5580;50.106;8.702;2023-10-08T08:21:20;13.40;;;6.80;;
11054;SDS011;5580;50.106;8.702;2023-10-08T08:23:48;15.30;;;6.90;;
11054;SDS011;5580;50.106;8.702;2023-10-08T08:26:18;13.43;;;6.40;;
11054;SDS011;5580;50.106;8.702;2023-10-08T08:29:00;13.00;;;6.47;;
11054;SDS011;5580;50.106;8.702;2023-10-08T08:31:30;12.10;;;6.00;;
11054;SDS011;5580;50.106;8.702;2023-10-08T08:33:56;12.77;;;6.60;;
11054;SDS011;5580;50.106;8.702;2023-10-08T08:36:25;12.73;;;6.37;;
11054;SDS011;5580;50.106;8.702;2023-10-08T08:38:52;13.10;;;6.53;;
11054;SDS011;5580;50.106;8.702;2023-10-08T08:41:21;14.20;;;6.70;;
11054;SDS011;5580;50.106;8.702;2023-10-08T08:43:48;15.77;;;7.07;;
11054;SDS011;5580;50.106;8.702;2023-10-08T08:46:22;11.93;;;6.60;;
11054;SDS011;5580;50.106;8.702;2023-10-08T08:48:52;11.60;;;5.93;;
11054;SDS011;5580;50.106;8.702;2023-10-08T08:51:18;12.13;;;6.70;;
11054;SDS011;5580;50.106;8.702;2023-10-08T08:53:47;15.17;;;6.50;;
11054;SDS011;5580;50.106;8.702;2023-10-08T08:56:14;13.63;;;7.00;;
11054;SDS011;5580;50.106;8.702;2023-10-08T08:58:41;14.67;;;6.57;;
11054;SDS011;5580;50.106;8.702;2023-10-08T09:01:09;12.77;;;7.00;;
11054;SDS011;5580;50.106;8.702;2023-10-08T09:03:38;13.23;;;6.83;;
11054;SDS011;5580;50.106;8.702;2023-10-08T09:06:04;12.07;;;6.60;;
11054;SDS011;5580;50.106;8.702;2023-10-08T09:08:37;12.60;;;6.63;;
11054;SDS011;5580;50.106;8.702;2023-10-08T09:11:06;10.67;;;6.40;;
11054;SDS011;5580;50.106;8.702;2023-10-08T09:13:33;13.23;;;6.90;;
11054;SDS011;5580;50.106;8.702;2023-10-08T09:16:07;14.00;;;6.50;;
11054;SDS011;5580;50.106;8.702;2023-10-08T09:18:36;12.57;;;7.00;;
11054;SDS011;5580;50.106;8.702;2023-10-08T09:21:12;13.63;;;7.07;;
11054;SDS011;5580;50.106;8.702;2023-10-08T09:23:44;17.57;;;7.20;;
11054;SDS011;5580;50.106;8.702;2023-10-08T09:26:21;14.77;;;7.07;;
11054;SDS011;5580;50.106;8.702;2023-10-08T09:28:54;14.03;;;7.13;;
11054;SDS011;5580;50.106;8.702;2023-10-08T09:31:22;15.80;;;7.40;;
11054;SDS011;5580;50.106;8.702;2023-10-08T09:33:55;13.47;;;6.83;;
11054;SDS011;5580;50.106;8.702;2023-10-08T09:36:21;12.00;;;6.67;;
11054;SDS011;5580;50.106;8.702;2023-10-08T09:38:57;15.07;;;6.97;;
11054;SDS011;5580;50.106;8.702;2023-10-08T09:41:26;14.43;;;6.93;;
11054;SDS011;5580;50.106;8.702;2023-10-08T09:43:54;15.83;;;6.73;;
11054;SDS011;5580;50.106;8.702;2023-10-08T09:46:22;13.70;;;7.13;;
11054;SDS011;5580;50.106;8.702;2023-10-08T09:48:55;14.20;;;6.50;;
11054;SDS011;5580;50.106;8.702;2023-10-08T09:51:26;14.27;;;7.30;;
11054;SDS011;5580;50.106;8.702;2023-10-08T09:54:10;14.03;;;6.60;;
11054;SDS011;5580;50.106;8.702;2023-10-08T09:56:43;15.00;;;6.43;;
11054;SDS011;5580;50.106;8.702;2023-10-08T09:59:10;14.93;;;7.30;;
11054;SDS011;5580;50.106;8.702;2023-10-08T10:01:37;13.63;;;6.90;;
11054;SDS011;5580;50.106;8.702;2023-10-08T10:04:10;14.43;;;7.10;;
11054;SDS011;5580;50.106;8.702;2023-10-08T10:06:49;15.10;;;6.70;;
11054;SDS011;5580;50.106;8.702;2023-10-08T10:09:22;13.43;;;6.90;;
11054;SDS011;5580;50.106;8.702;2023-10-08T10:11:49;11.83;;;6.13;;
11054;SDS011;5580;50.106;8.702;2023-10-08T10:14:16;14.53;;;6.33;;
11054;SDS011;5580;50.106;8.702;2023-10-08T10:16:43;12.27;;;6.50;;
11054;SDS011;5580;50.106;8.702;2023-10-08T10:19:19;13.97;;;6.33;;
11054;SDS011;5580;50.106;8.702;2023-10-08T10:21:45;14.83;;;6.70;;
11054;SDS011;5580;50.106;8.702;2023-10-08T10:24:36;16.83;;;6.57;;
11054;SDS011;5580;50.106;8.702;2023-10-08T10:27:14;15.03;;;7.17;;
11054;SDS011;5580;50.106;8.702;2023-10-08T10:29:42;14.20;;;6.33;;
11054;SDS011;5580;50.106;8.702;2023-10-08T10:32:12;14.83;;;6.00;;
11054;SDS011;5580;50.106;8.702;2023-10-08T10:34:44;13.77;;;6.70;;
11054;SDS011;5580;50.106;8.702;2023-10-08T10:37:12;13.07;;;6.83;;
11054;SDS011;5580;50.106;8.702;2023-10-08T10:39:56;12.57;;;6.37;;
11054;SDS011;5580;50.106;8.702;2023-10-08T10:42:26;15.07;;;6.97;;
11054;SDS011;5580;50.106;8.702;2023-10-08T10:44:53;14.13;;;7.20;;
11054;SDS011;5580;50.106;8.702;2023-10-08T10:47:20;13.97;;;6.70;;
11054;SDS011;5580;50.106;8.702;2023-10-08T10:49:47;14.23;;;6.60;;
11054;SDS011;5580;50.106;8.702;2023-10-08T10:52:17;13.67;;;6.77;;
11054;SDS011;5580;50.106;8.702;2023-10-08T10:55:08;14.47;;;6.60;;
11054;SDS011;5580;50.106;8.702;2023-10-08T10:57:43;14.13;;;7.07;;
11054;SDS011;5580;50.106;8.702;2023-10-08T11:00:21;13.87;;;6.63;;
11054;SDS011;5580;50.106;8.702;2023-10-08T11:03:00;15.30;;;6.67;;
11054;SDS011;5580;50.106;8.702;2023-10-08T11:05:40;14.63;;;6.80;;
11054;SDS011;5580;50.106;8.702;2023-10-08T11:08:12;13.33;;;6.40;;
11054;SDS011;5580;50.106;8.702;2023-10-08T11:10:39;15.93;;;6.97;;
11054;SDS011;5580;50.106;8.702;2023-10-08T11:13:12;12.87;;;6.30;;
11054;SDS011;5580;50.106;8.702;2023-10-08T11:15:42;13.17;;;6.50;;
11054;SDS011;5580;50.106;8.702;2023-10-08T11:18:13;14.03;;;7.07;;
11054;SDS011;5580;50.106;8.702;2023-10-08T11:20:40;15.27;;;7.30;;
11054;SDS011;5580;50.106;8.702;2023-10-08T11:23:09;14.50;;;7.10;;
11054;SDS011;5580;50.106;8.702;2023-10-08T11:25:55;15.37;;;6.53;;
11054;SDS011;5580;50.106;8.702;2023-10-08T11:28:28;15.40;;;7.10;;
11054;SDS011;5580;50.106;8.702;2023-10-08T11:30:58;14.33;;;6.83;;
11054;SDS011;5580;50.106;8.702;2023-10-08T11:33:32;17.97;;;7.40;;
11054;SDS011;5580;50.106;8.702;2023-10-08T11:36:01;17.33;;;7.67;;
11054;SDS011;5580;50.106;8.702;2023-10-08T11:38:38;16.10;;;6.93;;
11054;SDS011;5580;50.106;8.702;2023-10-08T11:41:14;15.90;;;7.27;;
11054;SDS011;5580;50.106;8.702;2023-10-08T11:43:50;13.60;;;6.63;;
11054;SDS011;5580;50.106;8.702;2023-10-08T11:46:25;14.53;;;6.93;;
11054;SDS011;5580;50.106;8.702;2023-10-08T11:48:53;17.13;;;7.00;;
11054;SDS011;5580;50.106;8.702;2023-10-08T11:51:23;13.37;;;7.20;;
11054;SDS011;5580;50.106;8.702;2023-10-08T11:53:49;16.17;;;6.97;;
11054;SDS011;5580;50.106;8.702;2023-10-08T11:56:16;15.87;;;6.90;;
11054;SDS011;5580;50.106;8.702;2023-10-08T11:58:43;16.50;;;7.23;;
11054;SDS011;5580;50.106;8.702;2023-10-08T12:01:12;18.37;;;7.53;;
11054;SDS011;5580;50.106;8.702;2023-10-08T12:03:46;14.13;;;6.87;;
11054;SDS011;5580;50.106;8.702;2023-10-08T12:06:15;14.90;;;7.33;;
11054;SDS011;5580;50.106;8.702;2023-10-08T12:08:43;17.30;;;7.47;;
11054;SDS011;5580;50.106;8.702;2023-10-08T12:11:23;19.73;;;7.47;;
11054;SDS011;5580;50.106;8.702;2023-10-08T12:13:58;15.30;;;7.70;;
11054;SDS011;5580;50.106;8.702;2023-10-08T12:16:24;16.23;;;8.60;;
11054;SDS011;5580;50.106;8.702;2023-10-08T12:18:54;17.03;;;8.20;;
11054;SDS011;5580;50.106;8.702;2023-10-08T12:21:30;17.13;;;7.30;;
11054;SDS011;5580;50.106;8.702;2023-10-08T12:23:58;15.40;;;7.63;;
11054;SDS011;5580;50.106;8.702;2023-10-08T12:26:24;16.87;;;7.30;;
11054;SDS011;5580;50.106;8.702;2023-10-08T12:28:50;16.67;;;7.17;;
11054;SDS011;5580;50.106;8.702;2023-10-08T12:31:18;15.43;;;7.10;;
11054;SDS011;5580;50.106;8.702;2023-10-08T12:33:47;15.73;;;7.67;;
11054;SDS011;5580;50.106;8.702;2023-10-08T12:36:14;13.70;;;7.60;;
11054;SDS011;5580;50.106;8.702;2023-10-08T12:38:42;20.07;;;8.10;;
11054;SDS011;5580;50.106;8.702;2023-10-08T12:41:09;15.40;;;7.17;;
11054;SDS011;5580;50.106;8.702;2023-10-08T12:43:42;14.87;;;6.80;;
11054;SDS011;5580;50.106;8.702;2023-10-08T12:46:10;17.43;;;7.47;;
11054;SDS011;5580;50.106;8.702;2023-10-08T12:48:42;17.83;;;7.53;;
11054;SDS011;5580;50.106;8.702;2023-10-08T12:51:09;14.37;;;7.57;;
11054;SDS011;5580;50.106;8.702;2023-10-08T12:53:36;18.77;;;7.40;;
11054;SDS011;5580;50.106;8.702;2023-10-08T12:56:06;16.47;;;7.80;;
11054;SDS011;5580;50.106;8.702;2023-10-08T12:58:40;16.20;;;6.83;;
11054;SDS011;5580;50.106;8.702;2023-10-08T13:01:16;14.60;;;7.23;;
11054;SDS011;5580;50.106;8.702;2023-10-08T13:03:44;14.77;;;7.37;;
11054;SDS011;5580;50.106;8.702;2023-10-08T13:06:14;13.13;;;7.20;;
11054;SDS011;5580;50.106;8.702;2023-10-08T13:08:47;14.33;;;6.93;;
11054;SDS011;5580;50.106;8.702;2023-10-08T13:11:19;16.93;;;7.63;;
11054;SDS011;5580;50.106;8.702;2023-10-08T13:13:51;14.60;;;7.50;;
11054;SDS011;5580;50.106;8.702;2023-10-08T13:16:18;15.00;;;7.40;;
11054;SDS011;5580;50.106;8.702;2023-10-08T13:18:46;12.90;;;7.33;;
11054;SDS011;5580;50.106;8.702;2023-10-08T13:21:12;16.00;;;7.57;;
11054;SDS011;5580;50.106;8.702;2023-10-08T13:23:38;14.87;;;7.57;;
11054;SDS011;5580;50.106;8.702;2023-10-08T13:26:04;16.43;;;7.80;;
11054;SDS011;5580;50.106;8.702;2023-10-08T13:28:32;14.53;;;7.40;;
11054;SDS011;5580;50.106;8.702;2023-10-08T13:31:01;14.27;;;7.23;;
11054;SDS011;5580;50.106;8.702;2023-10-08T13:33:37;13.67;;;6.93;;
11054;SDS011;5580;50.106;8.702;2023-10-08T13:36:11;14.40;;;7.20;;
11054;SDS011;5580;50.106;8.702;2023-10-08T13:38:38;15.37;;;7.43;;
11054;SDS011;5580;50.106;8.702;2023-10-08T13:41:11;15.97;;;7.47;;
11054;SDS011;5580;50.106;8.702;2023-10-08T13:43:40;16.10;;;7.50;;
11054;SDS011;5580;50.106;8.702;2023-10-08T13:46:10;19.27;;;7.80;;
11054;SDS011;5580;50.106;8.702;2023-10-08T13:48:40;16.67;;;7.70;;
11054;SDS011;5580;50.106;8.702;2023-10-08T13:51:07;19.57;;;7.47;;
11054;SDS011;5580;50.106;8.702;2023-10-08T13:53:39;18.77;;;7.70;;
11054;SDS011;5580;50.106;8.702;2023-10-08T13:56:12;13.93;;;7.33;;
11054;SDS011;5580;50.106;8.702;2023-10-08T13:58:38;18.23;;;7.60;;
11054;SDS011;5580;50.106;8.702;2023-10-08T14:01:11;16.07;;;7.83;;
11054;SDS011;5580;50.106;8.702;2023-10-08T14:03:50;19.23;;;8.50;;
11054;SDS011;5580;50.106;8.702;2023-10-08T14:06:21;18.73;;;8.40;;
11054;SDS011;5580;50.106;8.702;2023-10-08T14:08:47;18.70;;;7.90;;
11054;SDS011;5580;50.106;8.702;2023-10-08T14:11:21;16.97;;;7.40;;
11054;SDS011;5580;50.106;8.702;2023-10-08T14:13:55;19.20;;;7.77;;
11054;SDS011;5580;50.106;8.702;2023-10-08T14:16:21;16.57;;;7.67;;
11054;SDS011;5580;50.106;8.702;2023-10-08T14:18:51;16.40;;;7.33;;
11054;SDS011;5580;50.106;8.702;2023-10-08T14:21:19;15.77;;;7.30;;
11054;SDS011;5580;50.106;8.702;2023-10-08T14:23:49;18.17;;;8.00;;
11054;SDS011;5580;50.106;8.702;2023-10-08T14:26:17;16.10;;;7.67;;
11054;SDS011;5580;50.106;8.702;2023-10-08T14:28:46;15.33;;;7.70;;
11054;SDS011;5580;50.106;8.702;2023-10-08T14:31:22;14.13;;;7.77;;
11054;SDS011;5580;50.106;8.702;2023-10-08T14:33:49;15.33;;;7.60;;
11054;SDS011;5580;50.106;8.702;2023-10-08T14:36:30;14.73;;;7.30;;
11054;SDS011;5580;50.106;8.702;2023-10-08T14:39:17;16.07;;;7.57;;
11054;SDS011;5580;50.106;8.702;2023-10-08T14:42:02;16.13;;;7.33;;
11054;SDS011;5580;50.106;8.702;2023-10-08T14:44:46;14.63;;;7.57;;
11054;SDS011;5580;50.106;8.702;2023-10-08T14:47:14;17.20;;;8.33;;
11054;SDS011;5580;50.106;8.702;2023-10-08T14:49:40;14.93;;;7.80;;
11054;SDS011;5580;50.106;8.702;2023-10-08T14:52:07;16.30;;;7.50;;
11054;SDS011;5580;50.106;8.702;2023-10-08T14:54:33;17.73;;;8.37;;
11054;SDS011;5580;50.106;8.702;2023-10-08T14:56:58;18.87;;;8.07;;
11054;SDS011;5580;50.106;8.702;2023-10-08T14:59:24;16.63;;;7.90;;
11054;SDS011;5580;50.106;8.702;2023-10-08T15:01:53;15.37;;;7.80;;
11054;SDS011;5580;50.106;8.702;2023-10-08T15:04:20;17.53;;;7.27;;
11054;SDS011;5580;50.106;8.702;2023-10-08T15:06:46;19.97;;;7.60;;
11054;SDS011;5580;50.106;8.702;2023-10-08T15:09:15;14.10;;;7.20;;
11054;SDS011;5580;50.106;8.702;2023-10-08T15:11:47;12.93;;;6.93;;
11054;SDS011;5580;50.106;8.702;2023-10-08T15:14:13;14.03;;;7.10;;
11054;SDS011;5580;50.106;8.702;2023-10-08T15:16:40;13.80;;;6.93;;
11054;SDS011;5580;50.106;8.702;2023-10-08T15:19:08;15.93;;;6.93;;
11054;SDS011;5580;50.106;8.702;2023-10-08T15:21:37;17.00;;;6.60;;